Dunedin, FL (34698)

9:41 AM EST on December 28, 2014 (GMT -0500)
E of Dunedin Marina | Change Station
CLOSE
Current Station
Personal Weather Station
Location: Dunedin, FL
Elevation: 25 ft
Nearby Weather Stations

Elev 25 ft 28.01 °N, 82.78 °W | Updated 1 minute ago

Clear
Clear
73.0 °F
Feels Like 72 °F
N
0.0
Wind Variable Wind from WSW
Gusts 0.0 mph

Today
High -- | Low -- °F
--% Chance of Precip.
Yesterday
High -- | Low -- °F
Precip. -- in
7:21 AM 5:44 PM
Waxing Crescent, 48% visible
Pressure 30.18 in
Visibility 7.0 miles
Clouds Clear
Heat Index 72 °F
Dew Point 69 °F
Humidity 86%
Rainfall 0.00 in
Snow Depth Not available.
UV 1 out of 12
Pollen 6.20 out of 12
Air Quality Not available.
Flu Activity Not available.
METAR KPIE 281353Z 00000KT 7SM CLR 20/19 A3018 RMK AO2 SLP219 T02000194 $

More Conditions Fewer Conditions

Pressure 30.18 in
Visibility 7.0 miles
Clouds Clear
Heat Index 72 °F
Dew Point 69 °F
Humidity 86%
Rainfall 0.00 in
Snow Depth Not available.
UV 1 out of 12
Pollen 6.20 out of 12
Air Quality Not available.
Flu Activity Not available.
METAR KPIE 281353Z 00000KT 7SM CLR 20/19 A3018 RMK AO2 SLP219 T02000194 $

More Conditions Fewer Conditions

10-Day Weather Forecast

Almanac

Astronomy

Dec. 28, 2014 Rise Set
Actual Time
Civil Twilight
Nautical Twilight
Astronomical Twilight
Moon
Length of Visible Light
Length of Day
Tomorrow will be .
, % of the Moon is Illuminated

Today's Extremes

State Highs State Lows

Community

WunderPhotos

Upload Photos

1,781,274 photos uploaded!

WunderBlogs® & News

Nearby

Air Quality

  Air Quality AQ Index Pollutant
Not available.

Snow Depth

Station Depth Elevation

Earthquake Activity

City Distance Mag. Time & Date
Minimum magnitude displayed is 2.5.

Coastal Water Temperatures

Place Temperature

Nearby Weather Stations